Emporia, KS

7:45 PM CDT on July 23, 2014 (GMT -0500)
Forbes (KFOE) Elev 1079 ft | 38.95 °N, 95.66 °W | Change Station

Current weather conditions updated 52 minutes ago

Clear
Clear
86 °F
Feels Like 87 °F
N
12
Wind Variable Wind from NNE

Tomorrow is forecast to be nearly the same temperature as today.

Today
High -- | Low -- °F
--% Chance of Precip.
Yesterday
High -- | Low -- °F
Precip. -- in
6:19 AM 8:42 PM
Waning Crescent, 8% visible
Pressure 30.05 in
Visibility 10.0 miles
Clouds Clear
Heat Index 87 °F
Dew Point 63 °F
Humidity 46%
Rainfall 0.00 in
Snow Depth Not available.
UV 1 out of 12
Pollen 5.40 out of 12
Air Quality Not available.
Flu Activity Not available.
METAR KFOE 232353Z 03010KT 10SM CLR 30/17 A3009 RMK AO2 SLP176 T03000172 10328 20300 55016

More Conditions Fewer Conditions

Pressure 30.05 in
Visibility 10.0 miles
Clouds Clear
Heat Index 87 °F
Dew Point 63 °F
Humidity 46%
Rainfall 0.00 in
Snow Depth Not available.
UV 1 out of 12
Pollen 5.40 out of 12
Air Quality Not available.
Flu Activity Not available.
METAR KFOE 232353Z 03010KT 10SM CLR 30/17 A3009 RMK AO2 SLP176 T03000172 10328 20300 55016

More Conditions Fewer Conditions

10-Day Weather Forecast

Almanac

Astronomy

Jul. 23, 2014 Rise Set
Actual Time 6:19 AM CDT 8:42 PM CDT
Civil Twilight 5:49 AM CDT 9:12 PM CDT
Nautical Twilight 5:11 AM CDT 9:50 PM CDT
Astronomical Twilight 4:30 AM CDT 10:30 PM CDT
Moon 3:38 AM CDT (7/23) 6:12 PM CDT (7/23)
Length of Visible Light 15h 23m
Length of Day
14h 23m
Tomorrow will be 1m 36s shorter.
Waning Crescent, 8% of the Moon is Illuminated
Today
Waning Crescent
Jul 26
New
Aug 3
First Quarter
Aug 10
Full
Aug 17
Last Quarter

Today's Extremes

State Highs State Lows

Community

WunderPhotos

Upload Photos

1,736,822 photos uploaded!

Nearby

Snow Depth

Station Depth Elevation
No new snow has been reported.

Earthquake Activity

City Distance Mag. Time & Date
Helena, Oklahoma 161 miles 3.2 8:41 AM CDT
2014-07-18
Caldwell, Kansas 126 miles 3.6 5:40 AM CDT
2014-07-17
Minimum magnitude displayed is 2.5.

Coastal Water Temperatures

Place Temperature
No Stations Reporting

Nearby Weather Stations

Station Location Temp. Heat Index Dew Point Humidity Wind Precip. Elev Updated Type
Timmerman School Area, Emporia, KS 85.1 °F 86 °F 64 °F 49% ENE  at  4.3 mph 0.00 in / hr 1214 ft 7:45 PM CDT Rapid Fire
East Emporia Kansas, Emporia, KS 86.0 °F 87 °F 63 °F 47% NE  at  4.2 mph - / hr 1106 ft 7:30 PM CDT Normal
Rural Flint Hills of Emporia, Emporia, KS 85.6 °F 88 °F 67 °F 54% NNE  at  3.0 mph 0.00 in / hr 1270 ft 7:39 PM CDT Normal
T-K Weather Station West Hartford, Kansa, Hartford, KS 84.7 °F 87 °F 66 °F 53% NE  at  2.7 mph - / hr 1129 ft 7:40 PM CDT Normal
RAWS TALLGRASS PRAIRIE KS, Strong City, KS 88 °F 89 °F 63 °F 44% NNE  at  7 mph 0.00 in / hr 1230 ft 6:30 PM CDT MADIS

Show More Stations Show Fewer Stations